Terminal Aerodrome Forecast
Issued by NWS

Home | Current Version | Previous Version | Text Only | Print | Product List | Glossary On
Versions: 1 2 3 4 5 6 7 8 9 10 11 12 13
000
FTUS43 KGLD 210522
TAFMCK
TAF
KMCK 210522Z 2106/2206 06006KT P6SM FEW050 SCT250 WS020/20030KT
     FM211000 VRB05KT P6SM FEW045 SCT250
     FM211700 19012G20KT P6SM SCT070 BKN200
     FM220200 12007KT P6SM FEW045 SCT200
     FM220500 03005KT P6SM SCT010 SCT200=

USA.gov is the U.S. government's official web portal to all federal, state and local government web resources and services.